Terminal Aerodrome Forecast
Issued by NWS

Home | Current Version | Previous Version | Graphics & Text | Print | Product List | Glossary On
Versions: 1 2 3 4 5 6 7 8 9 10 11 12 13 14 15
204
FTUS43 KOAX 141738
TAFCDR
TAF
KCDR 141738Z 1418/1518 VRB04KT P6SM SKC
     FM142300 14012KT P6SM VCTS SCT070CB OVC250
     FM150500 16010KT P6SM BKN150=

USA.gov is the U.S. government's official web portal to all federal, state and local government web resources and services.